createdAt,value
2023-03-17T00:01:25.056Z,2.58
2023-03-17T00:03:53.055Z,2.53
2023-03-17T00:06:27.855Z,2.78
2023-03-17T00:08:57.520Z,2.85
2023-03-17T00:11:28.724Z,3.58
2023-03-17T00:13:56.690Z,2.95
2023-03-17T00:16:27.069Z,2.95
2023-03-17T00:18:56.692Z,2.92
2023-03-17T00:21:28.655Z,2.50
2023-03-17T00:23:57.248Z,3.10
2023-03-17T00:26:27.650Z,2.67
2023-03-17T00:28:55.883Z,2.72
2023-03-17T00:31:26.240Z,3.00
2023-03-17T00:33:56.181Z,3.10
2023-03-17T00:36:28.083Z,3.15
2023-03-17T00:38:56.361Z,3.03
2023-03-17T00:41:29.470Z,3.33
2023-03-17T00:43:57.661Z,3.03
2023-03-17T00:46:28.701Z,2.95
2023-03-17T00:48:58.445Z,3.17
2023-03-17T00:51:26.434Z,3.10
2023-03-17T00:53:56.990Z,3.30
2023-03-17T00:56:24.938Z,2.65
2023-03-17T00:58:54.853Z,3.15
2023-03-17T01:01:22.824Z,3.20
2023-03-17T01:03:51.276Z,2.85
2023-03-17T01:06:20.196Z,3.08
2023-03-17T01:08:48.444Z,3.38
2023-03-17T01:11:19.054Z,3.47
2023-03-17T01:13:48.973Z,3.22
2023-03-17T01:16:18.383Z,3.72
2023-03-17T01:18:46.598Z,3.10
2023-03-17T01:21:15.366Z,4.03
2023-03-17T01:23:43.751Z,3.92
2023-03-17T01:26:11.763Z,3.50
2023-03-17T01:28:39.706Z,3.38
2023-03-17T01:31:07.555Z,3.67
2023-03-17T01:33:36.795Z,3.40
2023-03-17T01:36:04.821Z,3.75
2023-03-17T01:38:32.769Z,3.53
2023-03-17T01:41:01.485Z,3.42
2023-03-17T01:43:30.974Z,3.42
2023-03-17T01:46:28.018Z,2.95
2023-03-17T01:49:13.320Z,2.80
2023-03-17T01:51:48.061Z,3.83
2023-03-17T01:54:19.790Z,3.28
2023-03-17T01:56:51.755Z,4.20
2023-03-17T01:59:23.755Z,3.25
2023-03-17T02:01:55.538Z,3.55
2023-03-17T02:04:26.741Z,3.08
2023-03-17T02:06:58.385Z,3.30
2023-03-17T02:09:28.736Z,3.30
2023-03-17T02:11:58.819Z,3.75
2023-03-17T02:14:27.395Z,3.88
2023-03-17T02:16:55.529Z,3.45
2023-03-17T02:19:25.369Z,3.25
2023-03-17T02:21:56.845Z,3.78
2023-03-17T02:24:33.067Z,3.75
2023-03-17T02:27:06.007Z,3.65
2023-03-17T02:29:36.028Z,4.00
2023-03-17T02:32:05.554Z,3.75
2023-03-17T02:34:33.606Z,3.65
2023-03-17T02:37:02.974Z,3.72
2023-03-17T02:39:31.863Z,3.92
2023-03-17T02:41:59.744Z,4.43
2023-03-17T02:44:27.761Z,4.43
2023-03-17T02:46:55.681Z,3.60
2023-03-17T02:49:24.751Z,3.75
2023-03-17T02:51:53.256Z,4.07
2023-03-17T02:54:22.719Z,3.75
2023-03-17T02:56:50.705Z,4.55
2023-03-17T02:59:18.594Z,3.35
2023-03-17T03:01:48.526Z,4.10
2023-03-17T03:04:16.591Z,4.07
2023-03-17T03:06:45.693Z,3.95
2023-03-17T03:09:14.770Z,4.32
2023-03-17T03:11:44.093Z,4.07
2023-03-17T03:14:12.717Z,4.47
2023-03-17T03:16:40.664Z,4.18
2023-03-17T03:19:09.010Z,3.60
2023-03-17T03:21:37.672Z,4.28
2023-03-17T03:24:07.227Z,3.70
2023-03-17T03:26:35.134Z,3.60
2023-03-17T03:29:04.921Z,3.95
2023-03-17T03:31:32.880Z,3.80
2023-03-17T03:34:03.913Z,3.92
2023-03-17T03:36:32.360Z,4.18
2023-03-17T03:39:00.988Z,4.03
2023-03-17T03:41:30.296Z,4.28
2023-03-17T03:43:58.388Z,3.70
2023-03-17T03:46:27.747Z,4.63
2023-03-17T03:48:56.270Z,4.18
2023-03-17T03:51:24.182Z,4.03
2023-03-17T03:53:52.440Z,3.67
2023-03-17T03:56:20.385Z,4.60
2023-03-17T03:58:48.560Z,4.30
2023-03-17T04:01:16.567Z,3.70
2023-03-17T04:03:47.292Z,3.80
2023-03-17T04:06:16.204Z,4.15
2023-03-17T04:08:44.362Z,3.67
2023-03-17T04:11:12.323Z,3.97
2023-03-17T04:13:40.362Z,3.67
2023-03-17T04:16:10.033Z,4.18
2023-03-17T04:18:38.023Z,3.38
2023-03-17T04:21:08.345Z,4.20
2023-03-17T04:23:36.314Z,4.25
2023-03-17T04:26:11.099Z,3.53
2023-03-17T04:28:41.932Z,4.05
2023-03-17T04:31:11.561Z,3.70
2023-03-17T04:33:39.415Z,4.13
2023-03-17T04:36:14.483Z,3.60
2023-03-17T04:38:42.317Z,3.78
2023-03-17T04:41:10.200Z,4.18
2023-03-17T04:43:38.189Z,3.53
2023-03-17T04:46:06.713Z,3.80
2023-03-17T04:48:34.619Z,3.55
2023-03-17T04:51:02.559Z,3.65
2023-03-17T04:53:31.956Z,3.58
2023-03-17T04:56:00.005Z,3.90
2023-03-17T04:58:31.103Z,3.55
2023-03-17T05:00:59.429Z,3.88
2023-03-17T05:03:28.565Z,4.57
2023-03-17T05:05:57.389Z,3.67
2023-03-17T05:08:26.272Z,3.28
2023-03-17T05:10:56.064Z,3.72
2023-03-17T05:13:24.522Z,3.22
2023-03-17T05:15:54.306Z,4.18
2023-03-17T05:18:24.157Z,3.67
2023-03-17T05:20:52.594Z,4.38
2023-03-17T05:23:20.812Z,3.28
2023-03-17T05:25:48.732Z,3.40
2023-03-17T05:28:18.258Z,3.25
2023-03-17T05:30:47.966Z,3.38
2023-03-17T05:33:16.454Z,3.40
2023-03-17T05:35:45.420Z,3.97
2023-03-17T05:38:14.338Z,4.35
2023-03-17T05:40:42.790Z,3.83
2023-03-17T05:43:11.230Z,3.00
2023-03-17T05:45:41.252Z,3.58
2023-03-17T05:48:09.275Z,3.50
2023-03-17T05:50:37.271Z,3.50
2023-03-17T05:53:06.345Z,3.60
2023-03-17T05:55:34.295Z,3.15
2023-03-17T05:58:04.570Z,3.75
2023-03-17T06:00:32.936Z,3.97
2023-03-17T06:03:03.884Z,3.05
2023-03-17T06:05:32.132Z,3.40
2023-03-17T06:08:00.009Z,3.95
2023-03-17T06:10:29.134Z,3.50
2023-03-17T06:12:57.214Z,3.45
2023-03-17T06:15:35.751Z,3.55
2023-03-17T06:18:05.720Z,3.30
2023-03-17T06:20:33.992Z,3.88
2023-03-17T06:23:05.343Z,3.35
2023-03-17T06:25:34.860Z,3.22
2023-03-17T06:28:03.816Z,3.35
2023-03-17T06:30:32.830Z,3.65
2023-03-17T06:33:01.247Z,3.63
2023-03-17T06:35:31.560Z,3.72
2023-03-17T06:38:00.956Z,3.45
2023-03-17T06:40:29.297Z,3.53
2023-03-17T06:42:57.257Z,3.28
2023-03-17T06:45:25.249Z,3.15
2023-03-17T06:47:53.198Z,2.97
2023-03-17T06:50:21.421Z,3.38
2023-03-17T06:52:50.773Z,3.22
2023-03-17T06:55:19.838Z,3.55
2023-03-17T06:57:49.841Z,3.33
2023-03-17T07:00:20.094Z,3.67
2023-03-17T07:02:49.446Z,3.33
2023-03-17T07:05:17.966Z,3.13
2023-03-17T07:07:46.196Z,3.30
2023-03-17T07:10:17.383Z,3.88
2023-03-17T07:12:45.804Z,3.40
2023-03-17T07:15:14.000Z,3.78
2023-03-17T07:17:42.880Z,3.40
2023-03-17T07:20:11.953Z,3.50
2023-03-17T07:22:39.847Z,3.28
2023-03-17T07:25:09.718Z,3.38
2023-03-17T07:27:39.268Z,3.60
2023-03-17T07:30:08.704Z,3.67
2023-03-17T07:32:36.663Z,3.72
2023-03-17T07:35:05.096Z,3.60
2023-03-17T07:37:39.696Z,3.22
2023-03-17T07:40:10.281Z,3.45
2023-03-17T07:42:42.661Z,3.47
2023-03-17T07:45:12.900Z,3.27
2023-03-17T07:47:40.867Z,3.45
2023-03-17T07:50:09.683Z,3.88
2023-03-17T07:52:38.033Z,4.15
2023-03-17T07:55:08.559Z,3.17
2023-03-17T07:57:36.553Z,3.53
2023-03-17T08:00:10.138Z,3.35
2023-03-17T08:02:41.069Z,3.40
2023-03-17T08:05:13.248Z,3.42
2023-03-17T08:07:41.660Z,3.83
2023-03-17T08:10:11.630Z,3.92
2023-03-17T08:12:40.363Z,2.92
2023-03-17T08:15:10.957Z,4.18
2023-03-17T08:17:39.788Z,3.28
2023-03-17T08:20:09.773Z,3.55
2023-03-17T08:22:37.891Z,3.53
2023-03-17T08:25:06.718Z,3.35
2023-03-17T08:27:34.868Z,3.33
2023-03-17T08:30:04.291Z,4.20
2023-03-17T08:32:34.150Z,3.20
2023-03-17T08:35:02.603Z,3.33
2023-03-17T08:37:30.621Z,3.25
2023-03-17T08:39:58.998Z,3.70
2023-03-17T08:42:26.946Z,3.85
2023-03-17T08:44:54.796Z,4.30
2023-03-17T08:47:23.565Z,3.42
2023-03-17T08:49:53.324Z,3.55
2023-03-17T08:52:21.414Z,3.45
2023-03-17T08:54:49.611Z,3.25
2023-03-17T08:57:17.998Z,3.42
2023-03-17T08:59:47.042Z,3.20
2023-03-17T09:02:16.032Z,4.10
2023-03-17T09:04:44.029Z,3.22
2023-03-17T09:07:13.373Z,3.78
2023-03-17T09:09:41.242Z,3.38
2023-03-17T09:12:10.098Z,3.78
2023-03-17T09:14:43.824Z,3.72
2023-03-17T09:17:14.599Z,3.72
2023-03-17T09:19:43.445Z,3.83
2023-03-17T09:22:16.598Z,3.22
2023-03-17T09:24:44.513Z,3.45
2023-03-17T09:27:12.763Z,3.38
2023-03-17T09:29:41.241Z,3.30
2023-03-17T09:32:09.696Z,3.20
2023-03-17T09:34:37.661Z,3.42
2023-03-17T09:37:05.645Z,3.25
2023-03-17T09:39:34.954Z,3.65
2023-03-17T09:42:10.886Z,3.22
2023-03-17T09:44:56.752Z,3.22
2023-03-17T09:47:51.258Z,3.78
2023-03-17T09:50:23.780Z,4.18
2023-03-17T09:52:53.049Z,3.40
2023-03-17T09:55:28.382Z,3.60
2023-03-17T09:57:58.824Z,3.28
2023-03-17T10:00:31.106Z,3.15
2023-03-17T10:03:00.006Z,3.03
2023-03-17T10:05:30.255Z,3.03
2023-03-17T10:08:09.100Z,3.45
2023-03-17T10:10:48.179Z,3.15
2023-03-17T10:13:29.489Z,3.30
2023-03-17T10:16:04.430Z,2.90
2023-03-17T10:18:44.467Z,3.08
2023-03-17T10:21:16.949Z,3.05
2023-03-17T10:23:46.751Z,3.20
2023-03-17T10:26:27.171Z,3.13
2023-03-17T10:28:55.848Z,2.88
2023-03-17T10:31:29.934Z,3.20
2023-03-17T10:34:05.296Z,3.05
2023-03-17T10:36:37.643Z,3.65
2023-03-17T10:39:08.053Z,2.90
2023-03-17T10:41:41.170Z,3.10
2023-03-17T10:44:11.163Z,3.22
2023-03-17T10:46:40.141Z,3.35
2023-03-17T10:49:10.782Z,2.85
2023-03-17T10:51:40.536Z,3.53
2023-03-17T10:54:12.084Z,2.60
2023-03-17T10:56:43.196Z,3.10
2023-03-17T10:59:19.462Z,2.97
2023-03-17T11:01:52.535Z,2.95
2023-03-17T11:04:27.981Z,3.38
2023-03-17T11:06:57.817Z,3.60
2023-03-17T11:09:29.161Z,2.92
2023-03-17T11:12:07.440Z,2.70
2023-03-17T11:14:35.680Z,2.95
2023-03-17T11:17:05.671Z,2.90
2023-03-17T11:19:43.859Z,2.75
2023-03-17T11:22:17.028Z,3.55
2023-03-17T11:24:55.434Z,3.22
2023-03-17T11:27:32.456Z,2.78
2023-03-17T11:30:15.233Z,2.95
2023-03-17T11:32:48.054Z,2.50
2023-03-17T11:35:34.305Z,2.63
2023-03-17T11:38:16.941Z,2.35
2023-03-17T11:41:01.096Z,2.58
2023-03-17T11:43:36.632Z,2.65
2023-03-17T11:46:10.499Z,2.53
2023-03-17T11:48:49.871Z,2.92
2023-03-17T11:51:27.600Z,2.63
2023-03-17T11:54:09.510Z,2.72
2023-03-17T11:56:42.834Z,3.17
2023-03-17T11:59:32.905Z,2.58
2023-03-17T12:02:07.245Z,2.38
2023-03-17T12:04:39.182Z,2.55
2023-03-17T12:07:17.897Z,2.50
2023-03-17T12:09:49.775Z,2.70
2023-03-17T12:12:30.991Z,2.65
2023-03-17T12:15:05.221Z,2.67
2023-03-17T12:17:38.332Z,2.58
2023-03-17T12:20:16.482Z,2.40
2023-03-17T12:22:48.846Z,2.78
2023-03-17T12:25:24.626Z,2.60
2023-03-17T12:28:01.297Z,2.38
2023-03-17T12:30:36.067Z,2.30
2023-03-17T12:33:13.241Z,2.30
2023-03-17T12:35:41.279Z,2.20
2023-03-17T12:38:13.650Z,2.63
2023-03-17T12:41:05.572Z,2.67
2023-03-17T12:43:48.237Z,2.70
2023-03-17T12:46:34.530Z,2.53
2023-03-17T12:49:32.946Z,2.15
2023-03-17T12:52:14.480Z,2.50
2023-03-17T12:54:47.863Z,2.30
2023-03-17T12:59:49.439Z,2.20
2023-03-17T13:02:32.140Z,2.13
2023-03-17T13:05:01.752Z,2.85
2023-03-17T13:07:37.876Z,2.35
2023-03-17T13:10:19.917Z,2.53
2023-03-17T13:13:23.178Z,2.35
2023-03-17T13:16:00.557Z,2.40
2023-03-17T13:18:47.844Z,2.33
2023-03-17T13:21:18.640Z,2.10
2023-03-17T13:23:48.952Z,2.38
2023-03-17T13:26:20.882Z,2.20
2023-03-17T13:28:50.492Z,3.28
2023-03-17T13:31:36.706Z,2.42
2023-03-17T13:34:15.176Z,3.10
2023-03-17T13:36:52.942Z,3.40
2023-03-17T13:39:58.267Z,2.60
2023-03-17T13:42:57.209Z,2.25
2023-03-17T13:45:37.207Z,2.50
2023-03-17T13:48:33.692Z,3.10
2023-03-17T13:51:14.988Z,2.22
2023-03-17T13:53:48.777Z,1.95
2023-03-17T13:56:19.820Z,2.33
2023-03-17T13:59:05.720Z,2.33
2023-03-17T14:01:40.743Z,1.85
2023-03-17T14:04:19.416Z,2.70
2023-03-17T14:06:53.096Z,2.05
2023-03-17T14:09:30.762Z,2.22
2023-03-17T14:12:01.450Z,2.10
2023-03-17T14:14:38.261Z,1.92
2023-03-17T14:17:13.162Z,2.00
2023-03-17T14:19:43.299Z,2.20
2023-03-17T14:22:24.604Z,1.98
2023-03-17T14:24:54.229Z,2.05
2023-03-17T14:27:25.009Z,2.10
2023-03-17T14:29:53.344Z,2.08
2023-03-17T14:32:24.221Z,2.80
2023-03-17T14:34:57.467Z,2.13
2023-03-17T14:37:27.867Z,1.83
2023-03-17T14:39:58.111Z,1.70
2023-03-17T14:42:31.077Z,2.33
2023-03-17T14:45:03.816Z,2.20
2023-03-17T14:47:39.692Z,2.45
2023-03-17T14:50:17.376Z,2.75
2023-03-17T14:52:46.757Z,2.17
2023-03-17T14:55:17.042Z,1.90
2023-03-17T14:57:50.988Z,1.70
2023-03-17T15:00:38.198Z,2.20
2023-03-17T15:03:18.616Z,2.35
2023-03-17T15:05:47.448Z,2.03
2023-03-17T15:08:42.633Z,2.40
2023-03-17T15:11:25.344Z,2.00
2023-03-17T15:13:58.134Z,2.33
2023-03-17T15:16:30.171Z,1.67
2023-03-17T15:19:08.162Z,1.77
2023-03-17T15:21:39.570Z,2.33
2023-03-17T15:24:25.778Z,1.92
2023-03-17T15:27:01.438Z,2.40
2023-03-17T15:29:30.273Z,2.53
2023-03-17T15:32:12.772Z,2.22
2023-03-17T15:34:40.942Z,2.10
2023-03-17T15:37:16.927Z,2.30
2023-03-17T15:39:46.862Z,2.40
2023-03-17T15:42:15.492Z,2.20
2023-03-17T15:44:43.395Z,2.30
2023-03-17T15:47:14.808Z,2.20
2023-03-17T15:49:45.551Z,1.85
2023-03-17T15:52:18.868Z,2.00
2023-03-17T15:57:16.432Z,2.35
2023-03-17T15:59:44.805Z,2.28
2023-03-17T16:02:27.650Z,2.47
2023-03-17T16:05:00.303Z,2.00
2023-03-17T16:07:31.241Z,2.00
2023-03-17T16:10:00.536Z,2.50
2023-03-17T16:12:28.514Z,2.45
2023-03-17T16:15:00.747Z,2.03
2023-03-17T16:17:33.051Z,2.28
2023-03-17T16:20:01.233Z,2.35
2023-03-17T16:22:39.671Z,2.05
2023-03-17T16:25:20.490Z,2.50
2023-03-17T16:27:49.630Z,2.10
2023-03-17T16:30:19.346Z,2.58
2023-03-17T16:32:47.615Z,2.55
2023-03-17T16:35:17.644Z,2.65
2023-03-17T16:37:45.756Z,2.53
2023-03-17T16:40:27.056Z,2.38
2023-03-17T16:42:55.762Z,2.50
2023-03-17T16:45:28.607Z,2.92
2023-03-17T16:47:58.043Z,2.72
2023-03-17T16:50:30.089Z,2.40
2023-03-17T16:52:58.928Z,3.08
2023-03-17T16:55:30.134Z,2.70
2023-03-17T16:58:01.562Z,2.90
2023-03-17T17:00:31.658Z,3.10
2023-03-17T17:02:59.921Z,2.40
2023-03-17T17:05:29.890Z,2.85
2023-03-17T17:07:58.996Z,2.47
2023-03-17T17:10:30.611Z,2.80
2023-03-17T17:12:58.794Z,2.97
2023-03-17T17:15:27.100Z,2.80
2023-03-17T17:17:58.115Z,2.45
2023-03-17T17:20:30.925Z,2.90
2023-03-17T17:23:00.040Z,2.50
2023-03-17T17:25:30.265Z,2.63
2023-03-17T17:27:59.391Z,2.55
2023-03-17T17:30:30.429Z,2.42
2023-03-17T17:33:00.490Z,2.97
2023-03-17T17:35:32.566Z,3.10
2023-03-17T17:38:01.809Z,2.88
2023-03-17T17:40:32.349Z,3.28
2023-03-17T17:43:01.804Z,2.58
2023-03-17T17:45:29.756Z,2.58
2023-03-17T17:47:57.610Z,2.50
2023-03-17T17:50:28.461Z,3.28
2023-03-17T17:53:01.592Z,3.33
2023-03-17T17:55:30.902Z,2.33
2023-03-17T17:57:58.766Z,3.80
2023-03-17T18:00:26.752Z,3.00
2023-03-17T18:02:54.685Z,2.95
2023-03-17T18:05:23.002Z,2.90
2023-03-17T18:07:50.912Z,3.25
2023-03-17T18:10:22.287Z,3.22
2023-03-17T18:12:51.783Z,3.30
2023-03-17T18:15:19.685Z,3.00
2023-03-17T18:17:51.605Z,3.28
2023-03-17T18:20:21.784Z,3.40
2023-03-17T18:22:50.283Z,3.45
2023-03-17T18:25:19.388Z,3.58
2023-03-17T18:27:48.209Z,2.95
2023-03-17T18:30:22.206Z,2.95
2023-03-17T18:32:53.405Z,3.35
2023-03-17T18:35:23.129Z,3.00
2023-03-17T18:37:51.904Z,3.25
2023-03-17T18:40:22.215Z,3.53
2023-03-17T18:42:50.131Z,4.05
2023-03-17T18:45:19.790Z,3.70
2023-03-17T18:47:47.755Z,3.60
2023-03-17T18:50:18.635Z,4.38
2023-03-17T18:52:47.116Z,4.15
2023-03-17T18:55:16.264Z,4.40
2023-03-17T18:57:45.154Z,3.65
2023-03-17T19:00:15.272Z,3.50
2023-03-17T19:02:47.368Z,3.78
2023-03-17T19:05:16.168Z,3.88
2023-03-17T19:07:44.504Z,3.78
2023-03-17T19:10:13.966Z,3.83
2023-03-17T19:12:42.474Z,3.92
2023-03-17T19:15:12.590Z,3.65
2023-03-17T19:17:41.023Z,3.70
2023-03-17T19:20:13.974Z,3.65
2023-03-17T19:22:41.968Z,3.78
2023-03-17T19:25:10.898Z,4.00
2023-03-17T19:27:38.839Z,5.05
2023-03-17T19:30:08.176Z,4.50
2023-03-17T19:32:36.192Z,5.15
2023-03-17T19:35:04.524Z,4.60
2023-03-17T19:37:33.796Z,4.40
2023-03-17T19:40:01.792Z,4.22
2023-03-17T19:42:29.710Z,4.03
2023-03-17T19:44:58.318Z,4.30
2023-03-17T19:47:28.311Z,4.35
2023-03-17T19:49:57.664Z,3.85
2023-03-17T19:52:25.715Z,4.80
2023-03-17T19:54:55.070Z,4.10
2023-03-17T19:57:22.979Z,4.65
2023-03-17T19:59:51.238Z,4.40
2023-03-17T20:02:19.527Z,4.50
2023-03-17T20:04:47.474Z,4.05
2023-03-17T20:07:15.477Z,4.28
2023-03-17T20:09:44.744Z,3.78
2023-03-17T20:12:17.001Z,4.65
2023-03-17T20:14:44.986Z,4.55
2023-03-17T20:17:14.528Z,4.50
2023-03-17T20:19:42.425Z,4.20
2023-03-17T20:22:11.596Z,5.07
2023-03-17T20:24:39.530Z,5.00
2023-03-17T20:27:08.415Z,4.47
2023-03-17T20:29:38.437Z,5.07
2023-03-17T20:32:06.582Z,5.00
2023-03-17T20:34:34.710Z,4.28
2023-03-17T20:37:03.908Z,4.43
2023-03-17T20:39:32.423Z,4.32
2023-03-17T20:42:01.580Z,4.63
2023-03-17T20:44:29.415Z,4.70
2023-03-17T20:46:59.079Z,4.97
2023-03-17T20:49:27.736Z,4.50
2023-03-17T20:51:56.107Z,4.38
2023-03-17T20:54:24.341Z,4.68
2023-03-17T20:56:55.881Z,5.45
2023-03-17T20:59:24.712Z,5.40
2023-03-17T21:01:52.632Z,4.72
2023-03-17T21:04:22.362Z,5.45
2023-03-17T21:06:50.244Z,4.88
2023-03-17T21:09:18.144Z,5.38
2023-03-17T21:11:46.515Z,4.47
2023-03-17T21:14:14.829Z,5.20
2023-03-17T21:16:44.848Z,5.25
2023-03-17T21:19:15.202Z,5.28
2023-03-17T21:21:44.699Z,5.10
2023-03-17T21:24:24.785Z,5.18
2023-03-17T21:26:52.633Z,5.40
2023-03-17T21:29:21.299Z,4.68
2023-03-17T21:31:49.253Z,4.32
2023-03-17T21:34:17.267Z,5.00
2023-03-17T21:36:46.576Z,4.95
2023-03-17T21:39:14.434Z,5.22
2023-03-17T21:41:42.308Z,5.50
2023-03-17T21:44:11.905Z,4.95
2023-03-17T21:46:39.951Z,5.57
2023-03-17T21:49:08.098Z,4.90
2023-03-17T21:51:36.268Z,4.63
2023-03-17T21:54:06.424Z,5.32
2023-03-17T21:56:34.532Z,4.82
2023-03-17T21:59:02.510Z,5.32
2023-03-17T22:01:30.454Z,5.43
2023-03-17T22:03:59.595Z,5.25
2023-03-17T22:06:29.386Z,5.20
2023-03-17T22:08:57.468Z,5.85
2023-03-17T22:11:26.941Z,5.15
2023-03-17T22:13:54.797Z,4.82
2023-03-17T22:16:22.730Z,5.15
2023-03-17T22:18:50.670Z,4.93
2023-03-17T22:21:19.359Z,5.38
2023-03-17T22:23:47.807Z,5.20
2023-03-17T22:26:18.013Z,5.03
2023-03-17T22:28:49.116Z,5.20
2023-03-17T22:31:19.094Z,5.55
2023-03-17T22:33:48.473Z,4.53
2023-03-17T22:36:17.895Z,5.50
2023-03-17T22:38:46.801Z,5.07
2023-03-17T22:41:17.838Z,5.22
2023-03-17T22:43:47.493Z,5.28
2023-03-17T22:46:16.330Z,5.03
2023-03-17T22:48:44.408Z,5.47
2023-03-17T22:51:14.401Z,5.28
2023-03-17T22:53:42.589Z,5.03
2023-03-17T22:56:11.761Z,5.38
2023-03-17T22:58:40.488Z,5.35
2023-03-17T23:01:12.255Z,5.57
2023-03-17T23:03:40.849Z,5.30
2023-03-17T23:06:09.639Z,5.80
2023-03-17T23:08:39.468Z,5.80
2023-03-17T23:11:11.696Z,5.35
2023-03-17T23:13:41.515Z,5.53
2023-03-17T23:16:11.162Z,5.55
2023-03-17T23:18:39.241Z,5.72
2023-03-17T23:21:08.733Z,4.78
2023-03-17T23:23:38.070Z,4.78
2023-03-17T23:26:06.748Z,5.40
2023-03-17T23:28:34.876Z,4.80
2023-03-17T23:31:03.860Z,4.90
2023-03-17T23:33:34.003Z,4.65
2023-03-17T23:36:02.300Z,5.70
2023-03-17T23:38:30.285Z,5.10
2023-03-17T23:40:58.583Z,4.95
2023-03-17T23:43:27.412Z,5.03
2023-03-17T23:45:55.303Z,4.75
2023-03-17T23:48:23.458Z,4.50
2023-03-17T23:50:54.256Z,4.60
2023-03-17T23:53:24.041Z,4.45
2023-03-17T23:55:52.779Z,5.10
2023-03-17T23:58:21.186Z,4.80
